Time;durP1;ratioP1;P1;durP2;ratioP2;P2;SDS_P1;SDS_P2;PMS_P1;PMS_P2;Temp;Humidity;BMP_temperature;BMP_pressure;BME280_temperature;BME280_humidity;BME280_pressure;Samples;Min_cycle;Max_cycle;Signal;HPM_P1;HPM_P2
2021/12/07 00:01:39;;;;;;;12.65;8.10;;;3.70;99.90;;;;;;5113939;28;20047;-65
2021/12/07 00:04:06;;;;;;;14.27;8.15;;;3.80;99.90;;;;;;5113499;28;20142;-66
2021/12/07 00:06:33;;;;;;;10.95;7.47;;;3.70;99.90;;;;;;5114202;28;20043;-66
2021/12/07 00:08:59;;;;;;;13.93;8.68;;;3.80;99.90;;;;;;5095746;28;20502;-65
2021/12/07 00:11:29;;;;;;;13.80;8.23;;;3.90;99.90;;;;;;5113746;28;20560;-65
2021/12/07 00:13:57;;;;;;;11.73;7.88;;;3.80;99.90;;;;;;5113899;28;20044;-66
2021/12/07 00:16:24;;;;;;;13.55;7.82;;;3.90;99.90;;;;;;5113817;28;20055;-65
2021/12/07 00:18:50;;;;;;;10.88;7.68;;;3.90;99.90;;;;;;5095815;28;20502;-65
2021/12/07 00:21:18;;;;;;;13.70;7.43;;;3.70;99.90;;;;;;5114416;28;20097;-65
2021/12/07 00:23:45;;;;;;;12.93;8.13;;;3.50;99.90;;;;;;5113800;28;20130;-65
2021/12/07 00:26:12;;;;;;;12.38;7.60;;;4.40;99.90;;;;;;5113799;28;20047;-66
2021/12/07 00:28:39;;;;;;;13.18;7.43;;;4.40;99.90;;;;;;5113743;28;20063;-65
2021/12/07 00:31:24;;;;;;;11.88;8.07;;;3.60;99.90;;;;;;5113700;28;20048;-66
2021/12/07 00:34:05;;;;;;;15.48;8.70;;;3.30;99.90;;;;;;5096033;28;20096;-66
2021/12/07 00:36:31;;;;;;;13.10;8.35;;;3.50;99.90;;;;;;5095996;28;20070;-66
2021/12/07 00:38:57;;;;;;;15.45;8.77;;;3.50;99.90;;;;;;5113848;28;20553;-66
2021/12/07 00:41:22;;;;;;;13.15;8.60;;;3.50;99.90;;;;;;5095647;28;20131;-65
2021/12/07 00:43:48;;;;;;;14.93;8.93;;;3.50;99.90;;;;;;5113636;28;20043;-66
2021/12/07 00:46:14;;;;;;;14.95;9.32;;;3.40;99.90;;;;;;5113611;28;20071;-65
2021/12/07 00:48:39;;;;;;;14.82;9.00;;;3.40;99.90;;;;;;5113610;28;20536;-65
2021/12/07 00:51:05;;;;;;;14.50;8.60;;;3.40;99.90;;;;;;5095807;28;20468;-66
2021/12/07 00:53:31;;;;;;;14.23;9.43;;;3.00;99.90;;;;;;5113192;28;20400;-66
2021/12/07 00:56:01;;;;;;;15.02;9.88;;;4.70;99.90;;;;;;5113751;28;20047;-65
2021/12/07 00:58:30;;;;;;;15.18;9.25;;;3.80;99.90;;;;;;5113117;28;20506;-65
2021/12/07 01:01:00;;;;;;;15.20;8.73;;;4.50;99.90;;;;;;5114005;28;20047;-65
2021/12/07 01:03:27;;;;;;;13.75;9.05;;;3.30;99.90;;;;;;5113384;28;20570;-65
2021/12/07 01:06:05;;;;;;;14.07;8.93;;;4.00;99.90;;;;;;5113394;28;20177;-66
2021/12/07 01:25:18;;;;;;;14.73;9.15;;;3.70;99.90;;;;;;5116768;28;20054;-65
2021/12/07 01:27:47;;;;;;;13.65;9.23;;;3.10;99.90;;;;;;5116765;28;20053;-65
2021/12/07 01:30:30;;;;;;;15.65;9.25;;;3.00;99.90;;;;;;5098294;28;20044;-65
2021/12/07 01:35:54;;;;;;;15.43;9.65;;;3.00;99.90;;;;;;5117426;28;20047;-65
2021/12/07 01:41:01;;;;;;;15.02;9.52;;;3.20;99.90;;;;;;5116501;28;20059;-65
2021/12/07 01:43:54;;;;;;;16.15;9.55;;;3.50;99.90;;;;;;5084190;28;20460;-66
2021/12/07 02:00:12;;;;;;;14.30;9.05;;;3.20;99.90;;;;;;5116501;28;20094;-66
2021/12/07 02:02:38;;;;;;;17.08;9.50;;;2.80;99.90;;;;;;5097971;28;20506;-65
2021/12/07 02:05:06;;;;;;;12.60;8.00;;;3.30;99.90;;;;;;5116047;28;20051;-65
2021/12/07 02:07:32;;;;;;;14.57;8.77;;;2.80;99.90;;;;;;5115957;28;20044;-65
2021/12/07 02:10:04;;;;;;;15.82;9.57;;;2.80;99.90;;;;;;5115898;28;20047;-65
2021/12/07 02:12:41;;;;;;;15.57;9.57;;;2.20;99.90;;;;;;5116677;28;20070;-64
2021/12/07 02:15:09;;;;;;;15.75;9.35;;;2.60;99.90;;;;;;5115878;28;20101;-64
2021/12/07 02:17:35;;;;;;;14.23;9.13;;;2.60;99.90;;;;;;5115434;28;20632;-64
2021/12/07 02:20:02;;;;;;;17.15;9.50;;;2.20;99.90;;;;;;5115715;28;20051;-64
2021/12/07 02:22:27;;;;;;;15.07;9.35;;;2.50;99.90;;;;;;5115734;28;20391;-64
2021/12/07 02:24:53;;;;;;;14.75;8.45;;;2.50;99.90;;;;;;5115666;28;20118;-64
2021/12/07 02:27:19;;;;;;;13.82;8.98;;;2.30;99.90;;;;;;5115239;28;20418;-64
2021/12/07 02:29:45;;;;;;;14.40;9.35;;;2.50;99.90;;;;;;5097288;28;20091;-64
2021/12/07 02:32:10;;;;;;;16.42;10.00;;;2.70;99.90;;;;;;5115448;28;20047;-64
2021/12/07 02:34:42;;;;;;;13.57;8.70;;;2.40;99.90;;;;;;5097421;28;20142;-64
2021/12/07 02:37:09;;;;;;;16.30;9.70;;;2.40;99.90;;;;;;5115484;28;20043;-64
2021/12/07 02:39:37;;;;;;;17.25;9.63;;;3.40;99.90;;;;;;5115897;28;20055;-64
2021/12/07 02:42:04;;;;;;;14.82;8.90;;;2.30;99.90;;;;;;5115148;28;20043;-64
2021/12/07 02:44:31;;;;;;;12.88;8.43;;;2.30;99.90;;;;;;5080053;28;20100;-64
2021/12/07 02:46:57;;;;;;;16.50;9.27;;;3.40;99.90;;;;;;5115192;28;20055;-64
2021/12/07 02:49:23;;;;;;;14.27;9.05;;;2.30;99.90;;;;;;5115903;28;20380;-64
2021/12/07 02:51:49;;;;;;;16.33;9.27;;;2.10;99.90;;;;;;5097722;28;20047;-64
2021/12/07 02:54:15;;;;;;;12.45;7.72;;;2.10;99.90;;;;;;5115026;28;20055;-64
2021/12/07 02:56:41;;;;;;;14.70;9.00;;;4.20;99.90;;;;;;5115485;28;20047;-64
2021/12/07 02:59:07;;;;;;;12.88;7.88;;;2.30;99.90;;;;;;5114631;28;20115;-63
2021/12/07 03:01:42;;;;;;;14.40;9.02;;;3.00;99.90;;;;;;5115424;28;20043;-63
2021/12/07 03:04:13;;;;;;;14.85;9.43;;;2.30;99.90;;;;;;5097210;28;20055;-63
2021/12/07 03:06:50;;;;;;;13.07;8.05;;;2.30;99.90;;;;;;5114907;28;20058;-63
2021/12/07 03:26:02;;;;;;;13.73;8.32;;;2.90;99.90;;;;;;5114502;28;20480;-63
2021/12/07 03:28:29;;;;;;;14.55;9.43;;;2.50;99.90;;;;;;5115011;28;20039;-63
2021/12/07 03:30:55;;;;;;;14.32;8.68;;;3.20;99.90;;;;;;5114413;28;20043;-63
2021/12/07 03:33:21;;;;;;;12.75;8.50;;;2.40;99.90;;;;;;5114317;28;20050;-64
2021/12/07 03:35:47;;;;;;;12.75;7.90;;;3.10;99.90;;;;;;5113995;28;20056;-63
2021/12/07 03:38:13;;;;;;;12.73;7.78;;;2.40;99.90;;;;;;5113886;28;20050;-63
2021/12/07 03:40:39;;;;;;;11.95;8.50;;;2.70;99.90;;;;;;5114004;28;20035;-63
2021/12/07 03:43:06;;;;;;;13.88;8.55;;;2.30;99.90;;;;;;5096014;28;20104;-63
2021/12/07 03:45:32;;;;;;;14.23;8.32;;;3.60;99.90;;;;;;5114192;28;20048;-63
2021/12/07 03:48:00;;;;;;;15.02;8.85;;;3.90;99.90;;;;;;5113846;28;20498;-63
2021/12/07 03:50:26;;;;;;;12.35;8.07;;;2.30;99.90;;;;;;5113758;28;20574;-63
2021/12/07 03:52:52;;;;;;;14.50;9.02;;;2.50;99.90;;;;;;5096192;28;20039;-63
2021/12/07 03:55:19;;;;;;;14.98;8.20;;;2.30;99.90;;;;;;5114074;28;20096;-63
2021/12/07 03:57:45;;;;;;;14.55;9.10;;;3.50;99.90;;;;;;5113999;28;20050;-63
2021/12/07 04:00:14;;;;;;;15.02;8.98;;;2.10;99.90;;;;;;5113932;28;20048;-63
2021/12/07 04:02:41;;;;;;;12.52;7.97;;;2.40;99.90;;;;;;5113976;28;20051;-63
2021/12/07 04:05:15;;;;;;;13.57;8.32;;;2.40;99.90;;;;;;5113920;28;20044;-63
2021/12/07 04:07:42;;;;;;;12.55;8.10;;;2.40;99.90;;;;;;5114044;28;20043;-63
2021/12/07 04:10:10;;;;;;;12.80;8.30;;;1.90;99.90;;;;;;5113801;28;20079;-63
2021/12/07 04:12:36;;;;;;;12.77;7.80;;;2.30;99.90;;;;;;5096076;28;20051;-63
2021/12/07 04:15:04;;;;;;;14.27;8.63;;;2.40;99.90;;;;;;5113809;28;20039;-63
2021/12/07 04:17:30;;;;;;;13.25;8.80;;;2.40;99.90;;;;;;5114009;28;20058;-63
2021/12/07 04:19:56;;;;;;;15.27;8.80;;;2.40;99.90;;;;;;5114320;28;20040;-63
2021/12/07 04:22:22;;;;;;;13.15;8.40;;;2.10;99.90;;;;;;5113450;28;20040;-64
2021/12/07 04:24:47;;;;;;;12.20;8.05;;;3.60;99.90;;;;;;5113754;28;20050;-64
2021/12/07 04:27:13;;;;;;;14.10;9.05;;;2.20;99.90;;;;;;5114268;28;20035;-64
2021/12/07 04:29:39;;;;;;;12.05;8.73;;;3.60;99.90;;;;;;5095634;28;20052;-64
2021/12/07 04:32:05;;;;;;;12.27;8.45;;;2.20;99.90;;;;;;5113695;28;20039;-65
2021/12/07 04:34:31;;;;;;;12.68;8.80;;;2.50;99.90;;;;;;5114452;28;20126;-64
2021/12/07 04:36:57;;;;;;;14.43;9.32;;;2.50;99.90;;;;;;5113643;28;20083;-64
2021/12/07 04:39:23;;;;;;;14.73;9.23;;;2.50;99.90;;;;;;5095478;28;20043;-64
2021/12/07 04:41:50;;;;;;;13.32;8.57;;;2.50;99.90;;;;;;5113508;28;20048;-64
2021/12/07 04:44:16;;;;;;;14.00;9.23;;;2.40;99.90;;;;;;5113596;28;20051;-64
2021/12/07 04:59:31;;;;;;;16.67;9.93;;;2.90;99.90;;;;;;5117375;28;20146;-64
2021/12/07 05:01:57;;;;;;;15.52;9.10;;;2.50;99.90;;;;;;5117227;28;20073;-64
2021/12/07 05:04:27;;;;;;;13.25;8.90;;;2.80;99.90;;;;;;5117207;28;20051;-64
2021/12/07 05:06:59;;;;;;;14.98;8.65;;;2.20;99.90;;;;;;5117192;28;20101;-64
2021/12/07 05:09:38;;;;;;;17.38;9.10;;;3.30;99.90;;;;;;5099473;28;20372;-64
2021/12/07 05:12:22;;;;;;;13.80;8.70;;;2.50;99.90;;;;;;5117509;28;20494;-64
2021/12/07 05:14:48;;;;;;;16.35;9.60;;;2.60;99.90;;;;;;5117794;28;20440;-64
2021/12/07 05:39:09;;;;;;;15.95;10.23;;;2.40;99.90;;;;;;5116742;28;20051;-64
2021/12/07 05:41:34;;;;;;;17.30;9.90;;;1.90;99.90;;;;;;5117101;28;20047;-64
2021/12/07 05:44:02;;;;;;;14.85;9.75;;;2.30;99.90;;;;;;5098493;28;20048;-65
2021/12/07 05:46:28;;;;;;;18.00;9.93;;;3.00;99.90;;;;;;5116552;28;20130;-65
2021/12/07 05:48:53;;;;;;;15.15;9.85;;;2.30;99.90;;;;;;5116551;28;20082;-64
2021/12/07 05:51:19;;;;;;;15.75;9.45;;;2.30;99.90;;;;;;5116404;28;20040;-64
2021/12/07 05:53:45;;;;;;;16.38;10.30;;;3.50;99.90;;;;;;5116767;28;20044;-65
2021/12/07 05:56:10;;;;;;;16.60;9.63;;;2.70;99.90;;;;;;5082385;28;20068;-65
2021/12/07 05:58:36;;;;;;;16.50;9.40;;;2.20;99.90;;;;;;5116078;28;20475;-64
2021/12/07 06:01:02;;;;;;;13.98;8.90;;;2.20;99.90;;;;;;5116103;28;20039;-64
2021/12/07 06:03:28;;;;;;;14.45;9.32;;;2.20;99.90;;;;;;5115907;28;20047;-64
2021/12/07 06:05:55;;;;;;;15.75;8.77;;;2.60;99.90;;;;;;5098996;28;20054;-65
2021/12/07 06:08:21;;;;;;;16.75;8.95;;;3.10;99.90;;;;;;5116147;28;20043;-65
2021/12/07 06:10:48;;;;;;;14.98;8.57;;;2.20;99.90;;;;;;5097784;28;20096;-64
2021/12/07 06:13:14;;;;;;;17.90;9.50;;;1.80;99.90;;;;;;5115975;28;20052;-64
2021/12/07 06:15:44;;;;;;;14.20;9.10;;;2.20;99.90;;;;;;5115990;28;20058;-64
2021/12/07 06:18:09;;;;;;;17.25;10.07;;;2.90;99.90;;;;;;5115908;28;20534;-64
2021/12/07 06:20:35;;;;;;;15.38;9.80;;;2.20;99.90;;;;;;5098509;28;20043;-64
2021/12/07 06:23:01;;;;;;;13.88;8.60;;;2.50;99.90;;;;;;5097818;28;20103;-65
2021/12/07 06:25:28;;;;;;;15.60;9.70;;;2.40;99.90;;;;;;5115808;28;20043;-65
2021/12/07 06:27:55;;;;;;;15.55;9.73;;;2.20;99.90;;;;;;5115734;28;20043;-65
2021/12/07 06:30:20;;;;;;;16.95;10.10;;;2.10;99.90;;;;;;5115637;28;20107;-64
2021/12/07 06:32:46;;;;;;;14.70;9.38;;;2.50;99.90;;;;;;5097777;28;20047;-64
2021/12/07 06:35:12;;;;;;;15.40;9.43;;;2.10;99.90;;;;;;5115608;28;20050;-64
2021/12/07 06:37:38;;;;;;;16.08;9.70;;;2.10;99.90;;;;;;5116105;28;20047;-65
2021/12/07 06:40:06;;;;;;;15.18;9.10;;;2.20;99.90;;;;;;5115778;28;20047;-65
2021/12/07 06:42:32;;;;;;;14.80;9.23;;;2.10;99.90;;;;;;5115457;28;20138;-65
2021/12/07 06:44:58;;;;;;;14.45;8.88;;;3.20;99.90;;;;;;5097357;28;20079;-65
2021/12/07 06:47:23;;;;;;;13.32;8.68;;;3.90;99.90;;;;;;5097260;28;20084;-64
2021/12/07 06:49:49;;;;;;;17.35;9.80;;;2.60;99.90;;;;;;5115358;28;20039;-64
2021/12/07 06:52:15;;;;;;;13.48;8.70;;;2.00;99.90;;;;;;5115203;28;20433;-64
2021/12/07 06:54:41;;;;;;;14.93;8.77;;;3.50;99.90;;;;;;5097257;28;20048;-65
2021/12/07 06:57:06;;;;;;;14.80;8.18;;;2.00;99.90;;;;;;5115110;28;20050;-65
2021/12/07 06:59:32;;;;;;;14.77;8.25;;;3.60;99.90;;;;;;5096704;28;20058;-65
2021/12/07 07:01:58;;;;;;;16.40;9.48;;;2.60;99.90;;;;;;5115038;28;20130;-65
2021/12/07 07:04:24;;;;;;;12.80;8.07;;;1.60;99.90;;;;;;5096887;28;20054;-65
2021/12/07 07:06:51;;;;;;;12.90;7.68;;;2.00;99.90;;;;;;5115521;28;20051;-63
2021/12/07 07:09:17;;;;;;;15.65;7.63;;;2.30;99.90;;;;;;5115003;28;20044;-62
2021/12/07 07:11:43;;;;;;;13.93;8.10;;;3.00;99.90;;;;;;5096821;28;20471;-62
2021/12/07 07:14:09;;;;;;;12.63;7.20;;;2.90;99.90;;;;;;5114291;28;20091;-65
2021/12/07 07:16:35;;;;;;;12.75;7.72;;;2.10;99.90;;;;;;5096670;28;20047;-63
2021/12/07 07:19:01;;;;;;;13.85;7.53;;;2.10;99.90;;;;;;5115094;28;20121;-64
2021/12/07 07:21:27;;;;;;;11.90;7.00;;;2.50;99.90;;;;;;5114756;28;20479;-63
2021/12/07 07:23:53;;;;;;;11.82;7.07;;;2.40;99.90;;;;;;5114738;28;20039;-64
2021/12/07 07:26:19;;;;;;;12.10;6.60;;;2.00;99.90;;;;;;5114669;28;20056;-63
2021/12/07 07:28:45;;;;;;;12.52;6.63;;;2.10;99.90;;;;;;5096722;28;20076;-63
2021/12/07 07:31:12;;;;;;;12.05;6.70;;;2.10;99.90;;;;;;5114461;28;20039;-64
2021/12/07 07:33:38;;;;;;;11.93;6.68;;;1.80;99.90;;;;;;5114731;28;20046;-63
2021/12/07 07:36:05;;;;;;;12.25;6.65;;;4.50;99.90;;;;;;5114388;28;20046;-64
2021/12/07 07:38:32;;;;;;;13.82;7.40;;;1.90;99.90;;;;;;5096169;28;20090;-64
2021/12/07 07:40:58;;;;;;;12.35;6.93;;;4.50;99.90;;;;;;5114566;28;20043;-64
2021/12/07 07:43:24;;;;;;;10.90;6.75;;;2.80;99.90;;;;;;5114374;28;20459;-63
2021/12/07 07:45:51;;;;;;;11.60;6.72;;;2.50;99.90;;;;;;5115065;28;20126;-64
2021/12/07 07:48:18;;;;;;;12.27;7.65;;;1.80;99.90;;;;;;5114738;28;20047;-63
2021/12/07 07:50:45;;;;;;;10.25;6.60;;;2.40;99.90;;;;;;5114878;28;20126;-64
2021/12/07 07:53:11;;;;;;;10.95;6.25;;;2.20;99.90;;;;;;5114159;28;20070;-64
2021/12/07 07:55:38;;;;;;;11.27;6.13;;;2.30;99.90;;;;;;5114176;28;20035;-64
2021/12/07 07:58:05;;;;;;;11.63;6.05;;;2.20;99.90;;;;;;5114067;28;20118;-64
2021/12/07 08:00:31;;;;;;;10.38;5.47;;;2.20;99.90;;;;;;5092420;28;20059;-64
2021/12/07 08:02:57;;;;;;;10.60;6.00;;;2.10;99.90;;;;;;5093716;28;20051;-64
2021/12/07 08:05:23;;;;;;;11.95;5.80;;;2.40;99.90;;;;;;5093607;28;20521;-64
2021/12/07 08:07:50;;;;;;;17.20;9.63;;;2.40;99.90;;;;;;5093650;28;20117;-64
2021/12/07 08:10:20;;;;;;;12.20;6.50;;;2.90;99.90;;;;;;5092340;28;20067;-64
2021/12/07 08:12:47;;;;;;;10.13;6.00;;;2.60;99.90;;;;;;5094271;28;20070;-64
2021/12/07 08:15:14;;;;;;;13.10;6.32;;;2.40;99.90;;;;;;5094281;28;20070;-64
2021/12/07 08:17:40;;;;;;;11.35;6.00;;;2.80;99.90;;;;;;5093592;28;20105;-65
2021/12/07 08:20:07;;;;;;;10.80;5.95;;;2.50;99.90;;;;;;5093518;28;20047;-64
2021/12/07 08:22:33;;;;;;;10.80;5.65;;;2.50;99.90;;;;;;5093784;28;20109;-64
2021/12/07 08:24:59;;;;;;;9.93;5.95;;;2.80;99.90;;;;;;5094379;28;20044;-64
2021/12/07 08:27:26;;;;;;;10.27;5.57;;;2.50;99.90;;;;;;5097661;28;20051;-64
2021/12/07 08:29:53;;;;;;;11.65;4.97;;;2.60;99.90;;;;;;5097552;28;20093;-65
2021/12/07 08:32:18;;;;;;;11.52;5.50;;;2.60;99.90;;;;;;5097465;28;20039;-64
2021/12/07 08:34:44;;;;;;;10.57;5.35;;;2.60;99.90;;;;;;5097491;28;20048;-64
2021/12/07 08:37:10;;;;;;;10.75;4.80;;;2.70;99.90;;;;;;5096695;28;20098;-64
2021/12/07 08:39:37;;;;;;;10.60;5.88;;;2.60;99.90;;;;;;5097267;28;20087;-65
2021/12/07 08:42:04;;;;;;;7.78;5.03;;;2.70;99.90;;;;;;5097261;28;20080;-64
2021/12/07 08:44:30;;;;;;;8.27;4.63;;;2.60;99.90;;;;;;5097278;28;20051;-64
2021/12/07 08:46:56;;;;;;;9.05;4.55;;;2.60;99.90;;;;;;5096809;28;20113;-64
2021/12/07 08:49:22;;;;;;;11.18;5.43;;;3.10;99.90;;;;;;5097701;28;20044;-64
2021/12/07 08:51:49;;;;;;;10.15;4.95;;;2.70;99.90;;;;;;5097217;28;20094;-64
2021/12/07 08:54:25;;;;;;;10.88;4.68;;;2.70;99.90;;;;;;5096086;28;20052;-64
2021/12/07 08:59:45;;;;;;;17.25;7.07;;;2.80;99.90;;;;;;5103815;28;20411;-64
2021/12/07 09:02:20;;;;;;;15.65;8.55;;;3.00;99.90;;;;;;5099963;28;20048;-63
2021/12/07 09:04:46;;;;;;;11.05;5.15;;;3.20;99.90;;;;;;5100312;28;20401;-64
2021/12/07 09:07:12;;;;;;;12.80;5.47;;;2.70;99.90;;;;;;5099160;28;20051;-64
2021/12/07 09:09:39;;;;;;;12.25;5.30;;;2.70;99.90;;;;;;5117274;28;20040;-64
2021/12/07 09:12:06;;;;;;;9.70;5.05;;;2.70;99.90;;;;;;5098956;28;20145;-64
2021/12/07 09:14:34;;;;;;;11.23;5.35;;;2.70;99.90;;;;;;5099239;28;20043;-63
2021/12/07 09:17:02;;;;;;;13.70;6.03;;;2.70;99.90;;;;;;5117700;28;20056;-63
2021/12/07 09:19:32;;;;;;;10.13;5.55;;;2.40;99.90;;;;;;5100025;28;20116;-63
2021/12/07 09:21:58;;;;;;;9.40;5.13;;;2.70;99.90;;;;;;5117339;28;20584;-64
2021/12/07 09:24:24;;;;;;;10.13;5.20;;;2.60;99.90;;;;;;5117067;28;20047;-64
2021/12/07 09:26:50;;;;;;;9.30;4.95;;;2.80;99.90;;;;;;5116963;28;20043;-63
2021/12/07 09:29:16;;;;;;;10.30;5.95;;;3.20;99.90;;;;;;5117001;28;20089;-64
2021/12/07 09:31:43;;;;;;;9.52;4.82;;;2.80;99.90;;;;;;5117503;28;20043;-64
2021/12/07 09:34:11;;;;;;;9.88;4.70;;;2.90;99.90;;;;;;5116848;28;20044;-64
2021/12/07 09:36:39;;;;;;;11.95;5.50;;;2.50;99.90;;;;;;5098417;28;20433;-64
2021/12/07 09:39:06;;;;;;;12.38;5.40;;;3.20;99.90;;;;;;5116784;28;20044;-64
2021/12/07 09:41:33;;;;;;;10.27;5.20;;;2.80;99.90;;;;;;5099135;28;20375;-64
2021/12/07 09:43:59;;;;;;;11.73;5.50;;;2.90;99.90;;;;;;5098635;28;20051;-63
2021/12/07 09:46:24;;;;;;;12.18;5.72;;;3.00;99.90;;;;;;5116544;28;20040;-63
2021/12/07 09:48:50;;;;;;;14.68;7.03;;;3.10;99.90;;;;;;5116580;28;20059;-64
2021/12/07 09:51:19;;;;;;;13.60;6.05;;;2.70;99.90;;;;;;5098284;28;20040;-63
2021/12/07 09:53:48;;;;;;;11.50;5.40;;;2.70;99.90;;;;;;5116475;28;20107;-65
2021/12/07 09:56:15;;;;;;;12.48;5.90;;;3.60;99.90;;;;;;5099160;28;20060;-64
2021/12/07 09:58:42;;;;;;;11.35;5.57;;;3.10;99.90;;;;;;5116070;28;20044;-64
2021/12/07 10:01:09;;;;;;;12.18;6.03;;;3.50;99.90;;;;;;5116364;28;20043;-63
2021/12/07 10:03:36;;;;;;;8.93;5.15;;;3.00;99.90;;;;;;5081534;28;20079;-64
2021/12/07 10:06:02;;;;;;;10.60;5.00;;;3.30;99.90;;;;;;5117077;28;20054;-64
2021/12/07 10:08:28;;;;;;;10.32;5.47;;;3.30;99.90;;;;;;5098278;28;20056;-64
2021/12/07 10:10:57;;;;;;;11.70;5.40;;;3.30;99.90;;;;;;5116097;28;20181;-64
2021/12/07 10:13:28;;;;;;;10.07;4.53;;;3.30;99.90;;;;;;5116045;28;20120;-64
2021/12/07 10:15:55;;;;;;;10.55;4.90;;;3.40;99.90;;;;;;5116092;28;20540;-64
2021/12/07 10:18:31;;;;;;;9.50;5.28;;;3.40;99.90;;;;;;5116752;28;20383;-64
2021/12/07 10:21:09;;;;;;;11.02;4.78;;;3.50;99.90;;;;;;5116049;28;20036;-64
2021/12/07 10:23:38;;;;;;;10.75;5.30;;;4.10;99.90;;;;;;5098867;28;20131;-64
2021/12/07 10:26:12;;;;;;;12.15;4.82;;;3.60;99.90;;;;;;5115838;28;20163;-64
2021/12/07 10:28:46;;;;;;;8.82;4.57;;;3.70;99.90;;;;;;5116135;28;20044;-64
2021/12/07 10:31:34;;;;;;;12.13;4.82;;;3.70;99.90;;;;;;5116223;28;20132;-65
2021/12/07 10:34:07;;;;;;;12.35;5.05;;;3.80;99.90;;;;;;5112560;28;20120;-64
2021/12/07 10:36:45;;;;;;;10.03;4.70;;;3.80;99.90;;;;;;5111929;28;20121;-64
2021/12/07 10:39:17;;;;;;;9.25;4.10;;;3.10;99.90;;;;;;5113284;28;20272;-64
2021/12/07 10:41:55;;;;;;;10.27;5.50;;;4.10;99.90;;;;;;5115511;28;20094;-64
2021/12/07 10:44:24;;;;;;;10.43;4.93;;;4.00;99.90;;;;;;5115137;28;20040;-64
2021/12/07 10:46:58;;;;;;;10.52;4.78;;;4.10;99.90;;;;;;5115278;28;20430;-64
2021/12/07 10:49:44;;;;;;;13.25;4.57;;;4.10;99.90;;;;;;5093548;28;20032;-64
2021/12/07 10:52:17;;;;;;;8.57;3.97;;;4.20;99.90;;;;;;5111394;28;20043;-64
2021/12/07 10:55:07;;;;;;;9.68;3.83;;;4.30;99.90;;;;;;5110689;28;20042;-64
2021/12/07 10:57:44;;;;;;;11.00;4.07;;;4.30;99.90;;;;;;5093184;28;20043;-64
2021/12/07 11:00:32;;;;;;;8.27;4.00;;;4.40;99.90;;;;;;5110704;28;20530;-64
2021/12/07 11:03:19;;;;;;;10.23;3.80;;;4.40;99.90;;;;;;5094610;28;20182;-64
2021/12/07 11:05:50;;;;;;;9.43;3.60;;;4.40;99.90;;;;;;5093223;28;20456;-64
2021/12/07 11:08:19;;;;;;;10.27;3.70;;;4.40;99.90;;;;;;5111426;28;20031;-63
2021/12/07 11:10:48;;;;;;;8.73;4.18;;;4.50;99.90;;;;;;5110924;28;20040;-63
2021/12/07 11:13:23;;;;;;;10.40;3.53;;;4.80;99.90;;;;;;5110730;28;20113;-64
2021/12/07 11:15:54;;;;;;;10.63;3.67;;;4.50;99.90;;;;;;5111354;28;20066;-64
2021/12/07 11:18:35;;;;;;;9.60;4.13;;;5.20;99.90;;;;;;5112224;28;20094;-64
2021/12/07 11:21:08;;;;;;;10.07;3.88;;;4.80;99.90;;;;;;5111347;28;20047;-64
2021/12/07 11:23:38;;;;;;;;;;;4.50;99.90;;;;;;5111644;28;20086;-64
2021/12/07 11:31:46;;;;;;;9.07;3.35;;;4.60;99.90;;;;;;5028116;28;20049;-64
2021/12/07 11:34:27;;;;;;;11.05;3.42;;;5.20;99.90;;;;;;5027758;28;20080;-64
2021/12/07 11:37:07;;;;;;;9.50;3.47;;;5.60;99.90;;;;;;5074786;28;20047;-63
2021/12/07 11:39:57;;;;;;;8.43;2.97;;;5.10;99.90;;;;;;5110836;28;20089;-63
2021/12/07 11:42:30;;;;;;;8.60;2.78;;;4.90;99.90;;;;;;5100096;28;20467;-63
2021/12/07 11:44:56;;;;;;;;;;;4.90;99.90;;;;;;5111084;28;20066;-63
2021/12/07 11:47:33;;;;;;;10.85;3.75;;;4.90;99.90;;;;;;5110556;28;19915;-64
2021/12/07 11:50:27;;;;;;;7.65;3.65;;;4.90;99.90;;;;;;5109928;28;20054;-63
2021/12/07 11:53:16;;;;;;;14.25;3.47;;;4.90;99.90;;;;;;5106580;28;20078;-64
2021/12/07 11:55:45;;;;;;;10.07;3.00;;;4.90;99.90;;;;;;5113420;28;20120;-64
2021/12/07 11:58:11;;;;;;;10.68;3.50;;;5.30;99.90;;;;;;5114265;28;20039;-64
2021/12/07 12:00:47;;;;;;;10.90;3.67;;;4.70;99.90;;;;;;5113671;28;20413;-64
2021/12/07 12:03:16;;;;;;;10.02;3.78;;;5.10;99.90;;;;;;5114554;28;20451;-64
2021/12/07 12:05:45;;;;;;;7.53;3.45;;;5.10;99.90;;;;;;5114099;28;20050;-64
2021/12/07 12:08:13;;;;;;;11.10;3.90;;;5.10;99.90;;;;;;5114162;28;20047;-64
2021/12/07 12:10:53;;;;;;;7.10;3.47;;;5.80;99.90;;;;;;5096161;28;20115;-64
2021/12/07 12:13:50;;;;;;;8.35;3.33;;;5.20;99.90;;;;;;5113835;28;20521;-64
2021/12/07 12:16:22;;;;;;;9.57;3.08;;;5.20;99.90;;;;;;5113882;28;20475;-64
2021/12/07 12:19:01;;;;;;;7.97;3.42;;;5.20;99.90;;;;;;5114121;28;20058;-64
2021/12/07 12:21:38;;;;;;;7.10;3.60;;;5.30;99.90;;;;;;5114377;28;20079;-64
2021/12/07 12:24:15;;;;;;;7.10;3.55;;;6.00;99.90;;;;;;5114887;28;20402;-64
2021/12/07 12:26:44;;;;;;;8.50;3.05;;;5.30;99.90;;;;;;5114652;28;20112;-64
2021/12/07 12:29:25;;;;;;;9.70;3.90;;;5.30;99.90;;;;;;5113904;28;20087;-65
2021/12/07 12:31:57;;;;;;;25.38;12.48;;;5.30;99.90;;;;;;5113957;28;20039;-64
2021/12/07 12:34:29;;;;;;;8.40;2.92;;;5.30;99.90;;;;;;5096025;28;20486;-64
2021/12/07 12:36:59;;;;;;;7.28;3.25;;;5.30;99.90;;;;;;5114227;28;20421;-64
2021/12/07 12:39:50;;;;;;;9.52;2.70;;;5.40;99.90;;;;;;5113930;28;20035;-64
2021/12/07 12:42:29;;;;;;;7.45;2.65;;;5.30;99.90;;;;;;5113774;28;20109;-64
2021/12/07 12:45:24;;;;;;;8.70;3.45;;;5.30;99.90;;;;;;5113839;28;20479;-65
2021/12/07 12:48:17;;;;;;;7.88;3.22;;;5.40;99.90;;;;;;5113892;28;20184;-65
2021/12/07 12:50:43;;;;;;;6.45;2.95;;;5.40;99.90;;;;;;5095588;28;20130;-65
2021/12/07 12:53:11;;;;;;;7.53;2.58;;;5.40;99.90;;;;;;5113499;28;20130;-65
2021/12/07 12:55:51;;;;;;;7.78;2.85;;;5.40;99.90;;;;;;5113726;28;20043;-65
2021/12/07 12:58:38;;;;;;;7.65;2.70;;;5.50;99.90;;;;;;5096515;28;20104;-64
2021/12/07 13:01:10;;;;;;;11.15;2.80;;;5.30;99.90;;;;;;5113439;28;20120;-64
2021/12/07 13:04:04;;;;;;;7.88;2.63;;;5.50;99.90;;;;;;5114534;28;20052;-64
2021/12/07 13:06:40;;;;;;;9.15;2.47;;;5.50;99.90;;;;;;5113573;28;20062;-64
2021/12/07 13:09:21;;;;;;;9.13;3.53;;;5.50;99.90;;;;;;5113633;28;20043;-65
2021/12/07 13:11:49;;;;;;;8.43;3.28;;;5.50;99.90;;;;;;5115970;28;20039;-65
2021/12/07 13:14:24;;;;;;;9.70;2.97;;;5.20;99.90;;;;;;5117459;28;20043;-65
2021/12/07 13:17:14;;;;;;;8.70;2.58;;;5.40;99.90;;;;;;5117215;28;20130;-65
2021/12/07 13:20:15;;;;;;;4.53;2.30;;;5.40;99.90;;;;;;5099786;28;20455;-64
2021/12/07 13:22:53;;;;;;;5.45;2.83;;;5.40;99.90;;;;;;5017738;28;20394;-64
2021/12/07 13:25:26;;;;;;;9.35;2.58;;;5.50;99.90;;;;;;5106264;28;20411;-65
2021/12/07 13:28:17;;;;;;;9.43;3.28;;;5.40;99.90;;;;;;5117129;28;20061;-64
2021/12/07 13:30:46;;;;;;;8.77;3.05;;;5.40;99.90;;;;;;5116795;28;20047;-65
2021/12/07 13:33:34;;;;;;;8.18;3.67;;;5.40;99.90;;;;;;5116889;28;20076;-65
2021/12/07 13:36:19;;;;;;;7.80;3.05;;;5.40;99.90;;;;;;5116840;28;20051;-65
2021/12/07 13:38:45;;;;;;;8.25;3.88;;;5.40;99.90;;;;;;5117376;28;20387;-65
2021/12/07 13:41:14;;;;;;;7.80;3.05;;;5.30;99.90;;;;;;5116619;28;20043;-65
2021/12/07 13:43:42;;;;;;;9.85;3.58;;;5.50;99.90;;;;;;5117289;28;20070;-65
2021/12/07 13:46:21;;;;;;;9.55;3.40;;;5.40;99.90;;;;;;5116547;28;20083;-65
2021/12/07 13:48:49;;;;;;;8.98;2.85;;;5.40;99.90;;;;;;5116399;28;20047;-65
2021/12/07 13:51:18;;;;;;;9.98;3.50;;;5.60;99.90;;;;;;5116432;28;20078;-65
2021/12/07 13:53:46;;;;;;;7.68;3.88;;;5.40;99.90;;;;;;5116380;28;20048;-65
2021/12/07 13:56:13;;;;;;;7.95;3.70;;;5.20;99.90;;;;;;5116259;28;20079;-64
2021/12/07 13:59:00;;;;;;;6.93;3.38;;;5.40;99.90;;;;;;5117029;28;20372;-65
2021/12/07 14:01:28;;;;;;;9.75;3.30;;;5.40;99.90;;;;;;5116146;28;20503;-65
2021/12/07 14:03:55;;;;;;;12.15;3.95;;;5.30;99.90;;;;;;5116192;28;20396;-65
2021/12/07 14:06:21;;;;;;;10.15;3.67;;;5.30;99.90;;;;;;5116079;28;20127;-64
2021/12/07 14:08:47;;;;;;;8.95;3.85;;;5.30;99.90;;;;;;5082109;28;20413;-64
2021/12/07 14:11:14;;;;;;;9.05;3.85;;;5.60;99.90;;;;;;5115972;28;20127;-65
2021/12/07 14:13:47;;;;;;;10.25;4.07;;;5.30;99.90;;;;;;5116055;28;20126;-65
2021/12/07 14:16:16;;;;;;;7.80;3.25;;;5.30;99.90;;;;;;5116077;28;20452;-65
2021/12/07 14:18:43;;;;;;;12.05;4.70;;;5.30;99.90;;;;;;5115949;28;20050;-65
2021/12/07 14:21:09;;;;;;;8.48;4.05;;;5.30;99.90;;;;;;5115965;28;20079;-65
2021/12/07 14:23:41;;;;;;;11.98;4.22;;;5.20;99.90;;;;;;5115377;28;20043;-65
2021/12/07 14:26:09;;;;;;;11.30;3.83;;;5.20;99.90;;;;;;5097568;28;20074;-65
2021/12/07 14:28:41;;;;;;;9.57;4.70;;;5.20;99.90;;;;;;5098573;28;20047;-65
2021/12/07 14:31:09;;;;;;;9.10;4.32;;;5.20;99.90;;;;;;5097410;28;20047;-65
2021/12/07 14:33:57;;;;;;;10.45;4.25;;;5.10;99.90;;;;;;5098270;28;20479;-65
2021/12/07 14:36:34;;;;;;;9.43;3.88;;;5.10;99.90;;;;;;5116314;28;20059;-65
2021/12/07 14:39:27;;;;;;;9.65;4.53;;;5.10;99.90;;;;;;5116155;28;20391;-64
2021/12/07 14:42:08;;;;;;;9.63;4.03;;;5.00;99.90;;;;;;5115594;28;20049;-64